createdAt,value
2023-05-06T00:01:33.688Z,42.62
2023-05-06T00:04:04.291Z,42.77
2023-05-06T00:06:34.947Z,42.75
2023-05-06T00:09:05.461Z,42.76
2023-05-06T00:11:36.039Z,42.72
2023-05-06T00:14:06.576Z,42.88
2023-05-06T00:16:37.820Z,42.88
2023-05-06T00:19:08.723Z,43.01
2023-05-06T00:21:39.259Z,42.92
2023-05-06T00:24:09.947Z,43.04
2023-05-06T00:26:40.449Z,43.07
2023-05-06T00:29:10.923Z,43.20
2023-05-06T00:31:41.816Z,43.06
2023-05-06T00:34:12.454Z,43.24
2023-05-06T00:36:43.427Z,43.27
2023-05-06T00:39:14.005Z,43.27
2023-05-06T00:41:44.454Z,43.30
2023-05-06T00:44:15.254Z,43.44
2023-05-06T00:46:46.396Z,43.47
2023-05-06T00:49:17.761Z,43.44
2023-05-06T00:51:48.728Z,43.57
2023-05-06T00:54:19.718Z,43.64
2023-05-06T00:56:50.426Z,43.58
2023-05-06T00:59:21.280Z,43.70
2023-05-06T01:01:54.053Z,43.78
2023-05-06T01:04:25.169Z,43.82
2023-05-06T01:07:02.133Z,43.86
2023-05-06T01:09:40.628Z,43.95
2023-05-06T01:12:30.581Z,43.95
2023-05-06T01:15:08.836Z,44.08
2023-05-06T01:17:47.447Z,44.17
2023-05-06T01:20:21.000Z,44.19
2023-05-06T01:22:52.333Z,44.29
2023-05-06T01:25:24.374Z,44.27
2023-05-06T01:27:54.855Z,44.39
2023-05-06T01:30:28.883Z,44.43
2023-05-06T01:33:08.664Z,44.51
2023-05-06T01:35:47.578Z,44.50
2023-05-06T01:38:24.354Z,44.55
2023-05-06T01:40:58.972Z,44.61
2023-05-06T01:43:36.054Z,44.75
2023-05-06T01:46:07.972Z,44.82
2023-05-06T01:48:41.010Z,44.92
2023-05-06T01:51:11.514Z,44.93
2023-05-06T01:53:41.968Z,44.91
2023-05-06T01:56:12.543Z,44.99
2023-05-06T01:58:43.000Z,44.92
2023-05-06T02:01:13.518Z,45.01
2023-05-06T02:03:44.113Z,45.00
2023-05-06T02:06:14.791Z,45.07
2023-05-06T02:08:45.565Z,45.07
2023-05-06T02:11:21.230Z,45.23
2023-05-06T02:13:53.331Z,45.26
2023-05-06T02:16:23.937Z,45.28
2023-05-06T02:18:55.052Z,45.36
2023-05-06T02:21:26.488Z,45.30
2023-05-06T02:23:56.972Z,45.32
2023-05-06T02:26:27.577Z,45.42
2023-05-06T02:28:58.170Z,45.45
2023-05-06T02:31:28.693Z,45.51
2023-05-06T02:33:59.151Z,45.51
2023-05-06T02:36:29.796Z,45.49
2023-05-06T02:39:00.250Z,45.49
2023-05-06T02:41:31.661Z,45.64
2023-05-06T02:44:02.089Z,45.58
2023-05-06T02:46:32.599Z,45.60
2023-05-06T02:49:03.351Z,45.73
2023-05-06T02:51:33.808Z,45.81
2023-05-06T02:54:04.463Z,45.83
2023-05-06T02:56:35.248Z,45.86
2023-05-06T02:59:05.779Z,45.90
2023-05-06T03:01:36.358Z,46.02
2023-05-06T03:04:07.120Z,45.94
2023-05-06T03:06:37.646Z,45.97
2023-05-06T03:09:08.762Z,46.03
2023-05-06T03:11:39.866Z,46.00
2023-05-06T03:14:10.406Z,46.01
2023-05-06T03:16:40.909Z,46.05
2023-05-06T03:19:11.626Z,46.17
2023-05-06T03:21:42.640Z,46.25
2023-05-06T03:24:13.274Z,46.20
2023-05-06T03:26:43.735Z,46.27
2023-05-06T03:29:15.830Z,46.51
2023-05-06T03:31:46.733Z,46.39
2023-05-06T03:34:17.702Z,46.59
2023-05-06T03:36:48.686Z,46.78
2023-05-06T03:39:19.461Z,46.99
2023-05-06T03:41:50.066Z,46.91
2023-05-06T03:44:21.679Z,46.90
2023-05-06T03:46:52.154Z,46.89
2023-05-06T03:49:22.731Z,46.97
2023-05-06T03:51:53.616Z,47.00
2023-05-06T03:54:24.793Z,47.17
2023-05-06T03:56:55.386Z,47.50
2023-05-06T03:59:26.021Z,47.49
2023-05-06T04:01:57.006Z,47.55
2023-05-06T04:04:28.347Z,47.71
2023-05-06T04:06:58.047Z,47.72
2023-05-06T04:09:28.502Z,47.65
2023-05-06T04:11:59.347Z,47.77
2023-05-06T04:14:30.407Z,47.99
2023-05-06T04:17:01.060Z,48.10
2023-05-06T04:19:32.170Z,48.08
2023-05-06T04:22:02.651Z,48.20
2023-05-06T04:24:33.957Z,48.17
2023-05-06T04:27:05.890Z,48.50
2023-05-06T04:29:36.496Z,48.69
2023-05-06T04:32:07.813Z,48.71
2023-05-06T04:34:37.401Z,48.67
2023-05-06T04:37:08.594Z,48.90
2023-05-06T04:39:47.255Z,48.83
2023-05-06T04:42:18.197Z,49.12
2023-05-06T04:45:08.702Z,48.87
2023-05-06T04:47:40.366Z,48.88
2023-05-06T04:50:13.014Z,48.96
2023-05-06T04:52:44.769Z,48.98
2023-05-06T04:55:16.235Z,48.80
2023-05-06T04:57:50.850Z,48.76
2023-05-06T05:00:22.350Z,48.88
2023-05-06T05:02:52.930Z,48.85
2023-05-06T05:05:23.564Z,48.80
2023-05-06T05:07:55.220Z,48.97
2023-05-06T05:10:25.850Z,48.77
2023-05-06T05:12:56.785Z,48.51
2023-05-06T05:15:27.831Z,48.59
2023-05-06T05:17:58.912Z,48.93
2023-05-06T05:20:30.145Z,48.94
2023-05-06T05:23:03.059Z,48.99
2023-05-06T05:25:34.556Z,49.17
2023-05-06T05:28:05.188Z,49.30
2023-05-06T05:30:36.543Z,49.29
2023-05-06T05:33:07.245Z,49.25
2023-05-06T05:35:38.061Z,49.38
2023-05-06T05:38:10.038Z,49.40
2023-05-06T05:40:42.170Z,49.44
2023-05-06T05:43:13.077Z,49.60
2023-05-06T05:45:44.423Z,49.86
2023-05-06T05:48:15.190Z,49.99
2023-05-06T05:50:46.023Z,50.21
2023-05-06T05:53:17.376Z,50.33
2023-05-06T05:55:48.361Z,50.65
2023-05-06T05:58:19.550Z,50.72
2023-05-06T06:00:50.708Z,50.97
2023-05-06T06:03:21.751Z,50.88
2023-05-06T06:05:55.392Z,50.74
2023-05-06T06:08:27.687Z,51.24
2023-05-06T06:10:59.039Z,51.36
2023-05-06T06:13:34.149Z,51.22
2023-05-06T06:16:04.780Z,51.32
2023-05-06T06:18:37.044Z,51.34
2023-05-06T06:21:07.894Z,51.64
2023-05-06T06:23:38.716Z,51.87
2023-05-06T06:26:10.968Z,52.38
2023-05-06T06:28:44.631Z,52.24
2023-05-06T06:31:15.389Z,52.78
2023-05-06T06:33:45.911Z,52.81
2023-05-06T06:36:16.578Z,52.93
2023-05-06T06:38:46.997Z,53.19
2023-05-06T06:41:17.692Z,53.33
2023-05-06T06:43:48.147Z,53.44
2023-05-06T06:46:22.886Z,53.59
2023-05-06T06:48:53.438Z,53.84
2023-05-06T06:51:24.104Z,53.92
2023-05-06T06:53:55.253Z,53.97
2023-05-06T06:56:25.896Z,53.98
2023-05-06T06:58:56.320Z,54.27
2023-05-06T07:01:26.807Z,54.38
2023-05-06T07:03:57.297Z,54.59
2023-05-06T07:06:27.781Z,54.68
2023-05-06T07:08:58.279Z,54.61
2023-05-06T07:11:28.837Z,55.23
2023-05-06T07:14:00.001Z,55.18
2023-05-06T07:16:30.480Z,55.21
2023-05-06T07:19:01.093Z,55.29
2023-05-06T07:21:32.516Z,55.33
2023-05-06T07:24:03.124Z,55.60
2023-05-06T07:26:36.176Z,55.71
2023-05-06T07:29:06.905Z,55.87
2023-05-06T07:31:37.494Z,56.06
2023-05-06T07:34:08.766Z,56.12
2023-05-06T07:36:43.173Z,56.27
2023-05-06T07:39:15.844Z,56.23
2023-05-06T07:41:46.593Z,56.32
2023-05-06T07:44:17.037Z,56.51
2023-05-06T07:46:47.867Z,56.53
2023-05-06T07:49:18.457Z,56.55
2023-05-06T07:51:48.972Z,56.77
2023-05-06T07:54:19.456Z,57.05
2023-05-06T07:56:49.925Z,57.08
2023-05-06T07:59:20.425Z,56.81
2023-05-06T08:01:50.892Z,56.91
2023-05-06T08:04:21.593Z,56.89
2023-05-06T08:06:52.155Z,57.05
2023-05-06T08:09:23.324Z,57.27
2023-05-06T08:11:54.204Z,57.38
2023-05-06T08:14:26.054Z,57.31
2023-05-06T08:16:55.235Z,57.49
2023-05-06T08:19:26.569Z,57.68
2023-05-06T08:21:57.200Z,57.60
2023-05-06T08:24:27.837Z,57.33
2023-05-06T08:26:58.355Z,57.36
2023-05-06T08:29:28.800Z,57.41
2023-05-06T08:31:59.310Z,58.10
2023-05-06T08:34:29.861Z,58.52
2023-05-06T08:37:00.346Z,58.29
2023-05-06T08:39:30.892Z,58.62
2023-05-06T08:42:02.996Z,58.90
2023-05-06T08:44:33.716Z,58.77
2023-05-06T08:47:04.476Z,59.62
2023-05-06T08:49:35.220Z,59.79
2023-05-06T08:52:07.613Z,59.69
2023-05-06T08:54:39.069Z,59.83
2023-05-06T08:57:12.596Z,59.93
2023-05-06T08:59:45.154Z,60.13
2023-05-06T09:02:15.799Z,59.89
2023-05-06T09:04:48.087Z,59.83
2023-05-06T09:07:18.643Z,59.86
2023-05-06T09:09:49.511Z,59.68
2023-05-06T09:12:20.050Z,59.61
2023-05-06T09:14:52.506Z,59.19
2023-05-06T09:17:26.680Z,59.02
2023-05-06T09:19:58.909Z,59.09
2023-05-06T09:22:29.105Z,58.96
2023-05-06T09:25:00.434Z,58.97
2023-05-06T09:27:33.108Z,59.21
2023-05-06T09:30:06.154Z,59.39
2023-05-06T09:32:39.994Z,59.70
2023-05-06T09:35:12.699Z,59.81
2023-05-06T09:37:45.916Z,59.69
2023-05-06T09:40:17.015Z,59.90
2023-05-06T09:42:51.668Z,60.02
2023-05-06T09:45:24.343Z,59.94
2023-05-06T09:47:55.737Z,59.81
2023-05-06T09:50:27.143Z,60.00
2023-05-06T09:52:59.695Z,60.10
2023-05-06T09:55:31.387Z,60.25
2023-05-06T09:58:04.768Z,60.29
2023-05-06T10:00:36.225Z,59.96
2023-05-06T10:03:07.705Z,60.35
2023-05-06T10:05:40.992Z,60.01
2023-05-06T10:08:13.236Z,59.74
2023-05-06T10:10:45.142Z,60.17
2023-05-06T10:13:14.692Z,59.77
2023-05-06T10:15:46.604Z,59.98
2023-05-06T10:18:16.676Z,60.45
2023-05-06T10:20:48.973Z,60.51
2023-05-06T10:23:27.037Z,60.66
2023-05-06T10:26:02.414Z,60.66
2023-05-06T10:28:33.770Z,60.66
2023-05-06T10:31:08.637Z,60.53
2023-05-06T10:33:40.974Z,60.90
2023-05-06T10:36:20.505Z,60.83
2023-05-06T10:38:56.411Z,60.75
2023-05-06T10:41:29.036Z,60.86
2023-05-06T10:44:00.357Z,60.82
2023-05-06T10:46:32.849Z,60.92
2023-05-06T10:49:20.890Z,60.56
2023-05-06T10:52:13.404Z,60.59
2023-05-06T10:54:53.925Z,60.90
2023-05-06T10:57:27.343Z,60.90
2023-05-06T10:59:58.444Z,60.77
2023-05-06T11:02:32.753Z,60.70
2023-05-06T11:05:05.824Z,60.77
2023-05-06T11:07:36.837Z,60.78
2023-05-06T11:10:12.053Z,60.91
2023-05-06T11:12:50.318Z,60.95
2023-05-06T11:15:41.362Z,60.76
2023-05-06T11:18:45.142Z,60.75
2023-05-06T11:21:38.856Z,60.70
2023-05-06T11:24:22.950Z,60.72
2023-05-06T11:26:53.966Z,60.84
2023-05-06T11:29:25.029Z,61.21
2023-05-06T11:31:55.861Z,61.00
2023-05-06T11:34:28.967Z,60.95
2023-05-06T11:37:02.559Z,60.70
2023-05-06T11:39:39.817Z,60.90
2023-05-06T11:42:11.866Z,60.73
2023-05-06T11:44:42.441Z,60.52
2023-05-06T11:47:12.910Z,60.81
2023-05-06T11:49:44.446Z,60.60
2023-05-06T11:52:15.923Z,60.72
2023-05-06T11:54:47.476Z,60.74
2023-05-06T11:57:20.773Z,60.95
2023-05-06T11:59:56.220Z,60.80
2023-05-06T12:02:26.785Z,60.70
2023-05-06T12:04:58.496Z,60.69
2023-05-06T12:07:29.304Z,60.45
2023-05-06T12:10:04.031Z,60.58
2023-05-06T12:12:34.898Z,60.83
2023-05-06T12:15:05.969Z,60.82
2023-05-06T12:17:36.770Z,60.99
2023-05-06T12:20:11.607Z,61.09
2023-05-06T12:22:42.975Z,61.14
2023-05-06T12:25:18.325Z,61.22
2023-05-06T12:27:48.775Z,61.25
2023-05-06T12:30:32.353Z,61.27
2023-05-06T12:33:03.838Z,61.39
2023-05-06T12:35:34.978Z,61.37
2023-05-06T12:38:12.812Z,61.49
2023-05-06T12:40:47.037Z,61.37
2023-05-06T12:43:17.816Z,61.58
2023-05-06T12:46:05.769Z,61.64
2023-05-06T12:48:36.473Z,61.61
2023-05-06T12:51:21.906Z,61.32
2023-05-06T12:53:52.518Z,61.41
2023-05-06T12:56:23.691Z,61.63
2023-05-06T12:59:04.386Z,61.70
2023-05-06T13:01:35.584Z,61.66
2023-05-06T13:04:06.537Z,61.48
2023-05-06T13:06:37.001Z,61.24
2023-05-06T13:09:07.661Z,61.28
2023-05-06T13:11:38.194Z,61.41
2023-05-06T13:14:09.133Z,61.58
2023-05-06T13:16:40.318Z,61.68
2023-05-06T13:19:21.187Z,61.76
2023-05-06T13:21:55.651Z,61.71
2023-05-06T13:24:26.524Z,61.75
2023-05-06T13:27:00.626Z,61.65
2023-05-06T13:29:33.120Z,61.94
2023-05-06T13:32:05.730Z,61.87
2023-05-06T13:34:37.655Z,61.94
2023-05-06T13:37:08.153Z,61.61
2023-05-06T13:39:38.903Z,61.69
2023-05-06T13:42:09.437Z,61.83
2023-05-06T13:44:39.947Z,61.84
2023-05-06T13:47:10.424Z,61.59
2023-05-06T13:49:40.879Z,61.64
2023-05-06T13:52:11.360Z,61.53
2023-05-06T13:54:41.860Z,61.48
2023-05-06T13:57:12.322Z,61.33
2023-05-06T13:59:42.764Z,61.38
2023-05-06T14:02:13.784Z,61.22
2023-05-06T14:04:45.534Z,61.17
2023-05-06T14:07:16.076Z,61.21
2023-05-06T14:09:46.529Z,61.24
2023-05-06T14:12:17.329Z,61.39
2023-05-06T14:14:47.977Z,61.49
2023-05-06T14:17:18.909Z,61.76
2023-05-06T14:19:49.348Z,62.08
2023-05-06T14:22:19.862Z,62.14
2023-05-06T14:24:50.379Z,62.36
2023-05-06T14:27:20.917Z,62.23
2023-05-06T14:29:51.968Z,62.09
2023-05-06T14:32:22.496Z,62.04
2023-05-06T14:34:52.991Z,61.75
2023-05-06T14:37:23.461Z,62.00
2023-05-06T14:39:54.295Z,61.96
2023-05-06T14:42:24.744Z,61.89
2023-05-06T14:44:55.238Z,61.99
2023-05-06T14:47:26.433Z,61.65
2023-05-06T14:49:56.907Z,61.59
2023-05-06T14:52:27.411Z,61.71
2023-05-06T14:54:57.871Z,61.91
2023-05-06T14:57:28.337Z,62.24
2023-05-06T14:59:58.867Z,62.41
2023-05-06T15:02:29.477Z,62.45
2023-05-06T15:05:02.358Z,62.57
2023-05-06T15:07:34.463Z,62.59
2023-05-06T15:10:05.254Z,62.62
2023-05-06T15:12:36.408Z,62.72
2023-05-06T15:15:09.391Z,62.61
2023-05-06T15:17:41.866Z,62.77
2023-05-06T15:20:14.488Z,62.70
2023-05-06T15:22:44.968Z,62.66
2023-05-06T15:25:22.730Z,62.76
2023-05-06T15:28:04.869Z,62.98
2023-05-06T15:30:35.570Z,63.02
2023-05-06T15:33:06.319Z,62.98
2023-05-06T15:35:37.035Z,63.10
2023-05-06T15:38:07.545Z,62.87
2023-05-06T15:40:40.302Z,63.15
2023-05-06T15:43:13.847Z,63.11
2023-05-06T15:45:50.965Z,63.11
2023-05-06T15:48:21.475Z,63.19
2023-05-06T15:50:51.941Z,63.24
2023-05-06T15:53:22.708Z,63.21
2023-05-06T15:55:57.293Z,63.25
2023-05-06T15:58:32.638Z,63.27
2023-05-06T16:01:03.153Z,63.33
2023-05-06T16:03:33.776Z,63.38
2023-05-06T16:06:04.664Z,63.15
2023-05-06T16:08:35.171Z,63.27
2023-05-06T16:11:06.075Z,63.42
2023-05-06T16:13:36.552Z,63.28
2023-05-06T16:16:07.441Z,63.23
2023-05-06T16:18:37.956Z,62.91
2023-05-06T16:21:08.714Z,62.85
2023-05-06T16:23:39.209Z,63.06
2023-05-06T16:26:09.723Z,63.13
2023-05-06T16:28:40.320Z,63.15
2023-05-06T16:31:11.210Z,62.98
2023-05-06T16:33:41.816Z,63.00
2023-05-06T16:36:12.907Z,62.73
2023-05-06T16:38:43.410Z,62.99
2023-05-06T16:41:13.844Z,62.89
2023-05-06T16:43:44.329Z,63.01
2023-05-06T16:46:14.801Z,62.93
2023-05-06T16:48:45.317Z,63.21
2023-05-06T16:51:16.453Z,63.31
2023-05-06T16:53:47.727Z,63.00
2023-05-06T16:56:18.194Z,63.18
2023-05-06T16:58:48.685Z,63.18
2023-05-06T17:01:19.183Z,62.85
2023-05-06T17:03:49.756Z,62.99
2023-05-06T17:06:20.260Z,62.85
2023-05-06T17:08:50.700Z,63.14
2023-05-06T17:11:21.205Z,62.83
2023-05-06T17:13:52.996Z,62.71
2023-05-06T17:16:23.572Z,62.96
2023-05-06T17:18:54.054Z,62.86
2023-05-06T17:21:25.013Z,62.79
2023-05-06T17:23:55.983Z,62.91
2023-05-06T17:26:26.524Z,63.09
2023-05-06T17:28:57.336Z,63.33
2023-05-06T17:31:28.233Z,63.47
2023-05-06T17:33:58.906Z,63.47
2023-05-06T17:36:29.508Z,63.40
2023-05-06T17:39:06.099Z,63.64
2023-05-06T17:41:36.750Z,63.47
2023-05-06T17:44:07.700Z,63.49
2023-05-06T17:46:38.249Z,63.72
2023-05-06T17:49:08.926Z,63.77
2023-05-06T17:51:40.917Z,63.85
2023-05-06T17:54:11.402Z,63.56
2023-05-06T17:56:49.224Z,63.89
2023-05-06T17:59:21.115Z,63.63
2023-05-06T18:01:51.577Z,63.60
2023-05-06T18:04:22.075Z,63.42
2023-05-06T18:06:52.539Z,63.73
2023-05-06T18:09:23.025Z,63.50
2023-05-06T18:11:53.689Z,63.33
2023-05-06T18:14:24.165Z,63.30
2023-05-06T18:16:54.592Z,63.21
2023-05-06T18:19:25.038Z,63.26
2023-05-06T18:21:56.296Z,63.10
2023-05-06T18:24:26.795Z,62.88
2023-05-06T18:26:58.264Z,63.03
2023-05-06T18:29:30.406Z,62.96
2023-05-06T18:32:02.604Z,62.97
2023-05-06T18:34:33.205Z,62.74
2023-05-06T18:37:04.658Z,62.56
2023-05-06T18:39:35.246Z,62.59
2023-05-06T18:42:05.898Z,62.62
2023-05-06T18:44:36.397Z,62.91
2023-05-06T18:47:07.065Z,62.63
2023-05-06T18:49:37.953Z,62.65
2023-05-06T18:52:08.450Z,62.37
2023-05-06T18:54:39.612Z,62.21
2023-05-06T18:57:10.484Z,62.40
2023-05-06T18:59:41.260Z,62.28
2023-05-06T19:02:11.816Z,62.05
2023-05-06T19:04:42.277Z,62.24
2023-05-06T19:07:16.077Z,62.30
2023-05-06T19:09:46.758Z,62.26
2023-05-06T19:12:18.408Z,62.03
2023-05-06T19:14:48.885Z,62.10
2023-05-06T19:17:19.514Z,62.22
2023-05-06T19:19:50.108Z,62.12
2023-05-06T19:22:20.608Z,62.14
2023-05-06T19:24:51.048Z,62.09
2023-05-06T19:27:21.539Z,61.92
2023-05-06T19:29:52.016Z,61.72
2023-05-06T19:32:22.516Z,61.67
2023-05-06T19:34:53.020Z,61.93
2023-05-06T19:37:23.456Z,61.84
2023-05-06T19:39:53.872Z,61.66
2023-05-06T19:42:24.369Z,61.49
2023-05-06T19:44:54.924Z,61.64
2023-05-06T19:47:25.408Z,61.37
2023-05-06T19:49:55.867Z,61.37
2023-05-06T19:52:30.002Z,61.13
2023-05-06T19:55:03.259Z,61.47
2023-05-06T19:57:34.006Z,61.34
2023-05-06T20:00:09.987Z,61.27
2023-05-06T20:02:41.296Z,61.11
2023-05-06T20:05:13.185Z,60.88
2023-05-06T20:07:42.431Z,61.19
2023-05-06T20:10:14.222Z,61.27
2023-05-06T20:12:44.680Z,61.31
2023-05-06T20:15:15.831Z,61.21
2023-05-06T20:17:46.283Z,61.10
2023-05-06T20:20:17.613Z,61.05
2023-05-06T20:22:48.058Z,61.43
2023-05-06T20:25:19.724Z,61.01
2023-05-06T20:27:50.932Z,61.26
2023-05-06T20:30:21.646Z,61.31
2023-05-06T20:32:52.299Z,61.32
2023-05-06T20:35:23.001Z,61.30
2023-05-06T20:37:54.437Z,61.64
2023-05-06T20:40:25.096Z,61.35
2023-05-06T20:42:56.071Z,61.31
2023-05-06T20:45:27.659Z,61.44
2023-05-06T20:47:58.232Z,61.51
2023-05-06T20:50:30.003Z,61.58
2023-05-06T20:53:01.669Z,61.41
2023-05-06T20:55:32.289Z,61.79
2023-05-06T20:58:02.876Z,61.61
2023-05-06T21:00:33.346Z,61.76
2023-05-06T21:03:04.096Z,61.58
2023-05-06T21:05:34.663Z,61.77
2023-05-06T21:08:05.378Z,61.48
2023-05-06T21:10:35.845Z,61.38
2023-05-06T21:13:06.942Z,61.50
2023-05-06T21:15:38.207Z,61.77
2023-05-06T21:18:09.205Z,61.51
2023-05-06T21:20:39.764Z,61.79
2023-05-06T21:23:10.246Z,61.35
2023-05-06T21:25:40.769Z,61.60
2023-05-06T21:28:11.274Z,61.70
2023-05-06T21:30:41.822Z,61.53
2023-05-06T21:33:12.272Z,61.63
2023-05-06T21:35:42.727Z,61.27
2023-05-06T21:38:14.210Z,61.47
2023-05-06T21:40:44.657Z,61.59
2023-05-06T21:43:17.908Z,61.55
2023-05-06T21:45:48.370Z,61.46
2023-05-06T21:48:18.809Z,61.36
2023-05-06T21:50:49.236Z,61.52
2023-05-06T21:53:19.694Z,61.64
2023-05-06T21:55:50.121Z,61.45
2023-05-06T21:58:20.557Z,61.23
2023-05-06T22:00:52.359Z,61.59
2023-05-06T22:03:22.936Z,61.52
2023-05-06T22:05:53.432Z,61.55
2023-05-06T22:08:25.030Z,61.63
2023-05-06T22:10:56.679Z,61.68
2023-05-06T22:13:27.257Z,61.71
2023-05-06T22:15:57.988Z,61.80
2023-05-06T22:18:30.219Z,61.89
2023-05-06T22:21:00.661Z,61.64
2023-05-06T22:23:31.180Z,61.26
2023-05-06T22:26:01.655Z,61.31
2023-05-06T22:28:32.155Z,61.03
2023-05-06T22:31:03.035Z,60.98
2023-05-06T22:33:33.757Z,61.08
2023-05-06T22:36:04.646Z,61.08
2023-05-06T22:38:35.668Z,60.89
2023-05-06T22:41:06.152Z,60.95
2023-05-06T22:43:36.606Z,60.95
2023-05-06T22:46:07.482Z,61.08
2023-05-06T22:48:38.057Z,60.92
2023-05-06T22:51:08.650Z,60.74
2023-05-06T22:53:39.211Z,60.81
2023-05-06T22:56:10.356Z,60.75
2023-05-06T22:58:40.797Z,60.64
2023-05-06T23:01:12.029Z,60.70
2023-05-06T23:03:42.635Z,60.80
2023-05-06T23:06:13.178Z,60.81
2023-05-06T23:08:43.632Z,60.78
2023-05-06T23:11:14.082Z,60.93
2023-05-06T23:13:44.537Z,61.14
2023-05-06T23:16:15.080Z,60.78
2023-05-06T23:18:46.474Z,60.92
2023-05-06T23:21:16.910Z,61.15
2023-05-06T23:23:47.596Z,61.04
2023-05-06T23:26:18.136Z,60.99
2023-05-06T23:28:48.575Z,60.97
2023-05-06T23:31:19.234Z,60.96
2023-05-06T23:33:49.746Z,60.86
2023-05-06T23:36:20.174Z,60.83
2023-05-06T23:38:51.029Z,60.82
2023-05-06T23:41:21.428Z,60.79
2023-05-06T23:43:51.895Z,60.89
2023-05-06T23:46:22.489Z,60.78
2023-05-06T23:48:52.947Z,60.76
2023-05-06T23:51:23.410Z,60.81
2023-05-06T23:53:53.905Z,60.68
2023-05-06T23:56:24.309Z,60.69
2023-05-06T23:58:54.922Z,60.67
